Time;durP1;ratioP1;P1;durP2;ratioP2;P2;SDS_P1;SDS_P2;PMS_P1;PMS_P2;Temp;Humidity;BMP_temperature;BMP_pressure;BME280_temperature;BME280_humidity;BME280_pressure;Samples;Min_cycle;Max_cycle;Signal;HPM_P1;HPM_P2
2023/02/12 00:01:10;;;;;;;5.35;3.28;;;;;;;7.26;100.00;101957.53;7403207;19;20046;-56
2023/02/12 00:03:36;;;;;;;3.22;2.42;;;;;;;6.60;100.00;101969.56;7398570;19;20369;-57
2023/02/12 00:06:03;;;;;;;9.88;2.58;;;;;;;7.36;100.00;101970.53;7397129;19;20019;-57
2023/02/12 00:08:29;;;;;;;8.55;2.88;;;;;;;7.74;100.00;101954.13;7399087;19;20917;-57
2023/02/12 00:10:55;;;;;;;22.23;2.83;;;;;;;8.46;100.00;101967.91;7402490;19;20018;-57
2023/02/12 00:13:22;;;;;;;13.65;4.07;;;;;;;7.36;100.00;101976.09;7397138;19;20018;-56
2023/02/12 00:15:49;;;;;;;9.80;2.72;;;;;;;6.66;100.00;101967.97;7397579;19;20025;-56
2023/02/12 00:18:15;;;;;;;20.35;4.45;;;;;;;7.00;100.00;101966.31;7396960;19;20015;-56
2023/02/12 00:20:42;;;;;;;6.00;3.15;;;;;;;7.17;100.00;101973.78;7401841;19;20353;-57
2023/02/12 00:23:09;;;;;;;8.25;3.38;;;;;;;7.05;100.00;101979.75;7397813;19;20010;-57
2023/02/12 00:25:40;;;;;;;11.27;3.88;;;;;;;6.97;100.00;101956.06;7396007;19;20025;-57
2023/02/12 00:28:06;;;;;;;11.93;3.45;;;;;;;7.07;100.00;101960.75;7395655;19;20014;-57
2023/02/12 00:30:33;;;;;;;11.25;2.92;;;;;;;6.96;100.00;101967.50;7399847;19;20463;-56
2023/02/12 00:32:59;;;;;;;17.90;3.67;;;;;;;7.24;100.00;101962.69;7396223;19;20010;-57
2023/02/12 00:35:26;;;;;;;8.90;2.90;;;;;;;7.59;100.00;101953.41;7399113;19;20520;-57
2023/02/12 00:37:52;;;;;;;9.85;4.28;;;;;;;7.01;100.00;101959.59;7395680;19;20459;-56
2023/02/12 00:40:18;;;;;;;4.50;2.42;;;;;;;7.16;100.00;101958.38;7400403;19;20405;-56
2023/02/12 00:42:44;;;;;;;8.45;4.35;;;;;;;7.20;100.00;101964.69;7396002;19;20025;-56
2023/02/12 00:45:11;;;;;;;10.88;3.10;;;;;;;6.44;100.00;101956.13;7396593;19;20023;-56
2023/02/12 00:47:37;;;;;;;11.93;4.20;;;;;;;6.56;100.00;101949.41;7396276;19;20011;-56
2023/02/12 00:50:03;;;;;;;4.13;2.33;;;;;;;6.41;100.00;101950.59;7397016;19;20006;-56
2023/02/12 00:52:29;;;;;;;15.13;3.42;;;;;;;7.40;100.00;101951.94;7395840;19;20337;-56
2023/02/12 00:54:55;;;;;;;8.93;3.78;;;;;;;6.74;100.00;101947.38;7397526;19;20022;-56
2023/02/12 00:57:22;;;;;;;7.20;3.67;;;;;;;6.75;100.00;101943.44;7397108;19;20034;-56
2023/02/12 00:59:49;;;;;;;8.50;4.05;;;;;;;6.15;100.00;101942.69;7396148;19;20015;-56
2023/02/12 01:02:17;;;;;;;15.27;5.65;;;;;;;6.37;100.00;101941.47;7396904;19;20331;-56
2023/02/12 01:04:43;;;;;;;11.77;4.68;;;;;;;6.95;100.00;101932.72;7393513;19;20516;-56
2023/02/12 01:07:10;;;;;;;13.40;5.20;;;;;;;7.09;100.00;101935.41;7393245;19;20089;-56
2023/02/12 01:09:36;;;;;;;17.90;5.05;;;;;;;6.15;100.00;101939.91;7397321;19;20010;-56
2023/02/12 01:12:03;;;;;;;6.35;2.53;;;;;;;6.11;100.00;101937.94;7394256;19;20035;-56
2023/02/12 01:14:29;;;;;;;10.40;2.60;;;;;;;5.99;100.00;101941.09;7395593;19;20019;-56
2023/02/12 01:16:55;;;;;;;6.15;3.50;;;;;;;6.09;100.00;101934.78;7397085;19;20010;-56
2023/02/12 01:19:22;;;;;;;9.20;2.45;;;;;;;6.11;100.00;101940.69;7397101;19;20096;-56
2023/02/12 01:21:50;;;;;;;7.65;2.78;;;;;;;5.99;100.00;101941.09;7395974;19;20031;-56
2023/02/12 01:24:16;;;;;;;12.25;3.33;;;;;;;5.83;100.00;101932.34;7395139;19;20010;-56
2023/02/12 01:26:43;;;;;;;11.05;2.70;;;;;;;6.31;100.00;101940.31;7394645;19;20040;-56
2023/02/12 01:29:11;;;;;;;4.60;3.45;;;;;;;5.82;100.00;101946.56;7394035;19;20015;-56
2023/02/12 01:31:38;;;;;;;7.43;3.10;;;;;;;5.79;100.00;101947.34;7394007;19;20018;-56
2023/02/12 01:34:06;;;;;;;8.30;3.50;;;;;;;5.91;100.00;101945.00;7394121;19;20017;-56
2023/02/12 01:36:33;;;;;;;11.30;3.47;;;;;;;5.78;100.00;101946.53;7394035;19;20006;-56
2023/02/12 01:39:01;;;;;;;13.48;3.40;;;;;;;5.87;100.00;101946.19;7395815;19;20014;-56
2023/02/12 01:41:31;;;;;;;4.68;2.28;;;;;;;5.81;100.00;101940.25;7394633;19;20007;-55
2023/02/12 01:44:17;;;;;;;14.95;2.28;;;;;;;5.95;100.00;101936.75;7395474;19;20094;-56
2023/02/12 01:46:48;;;;;;;3.05;2.63;;;;;;;7.70;100.00;101947.81;7392072;19;20014;-56
2023/02/12 01:49:23;;;;;;;8.27;3.75;;;;;;;9.61;100.00;101920.56;7395597;19;20527;-56
2023/02/12 01:51:56;;;;;;;3.13;1.15;;;;;;;10.43;100.00;101920.09;7394602;19;20015;-56
2023/02/12 01:54:24;;;;;;;7.32;2.10;;;;;;;10.17;100.00;101930.09;7394303;19;20025;-56
2023/02/12 01:56:52;;;;;;;6.43;3.10;;;;;;;10.10;100.00;101930.16;7393122;19;20007;-56
2023/02/12 01:59:19;;;;;;;7.78;2.70;;;;;;;11.44;100.00;101925.69;7394738;19;20021;-56
2023/02/12 02:01:46;;;;;;;5.18;2.42;;;;;;;15.28;100.00;101922.00;7391216;19;20014;-56
2023/02/12 02:04:16;;;;;;;5.32;2.50;;;;;;;11.50;100.00;101925.94;7392484;19;20011;-56
2023/02/12 02:07:00;;;;;;;8.00;3.33;;;;;;;10.60;100.00;101919.78;7391075;19;20156;-56
2023/02/12 02:09:28;;;;;;;5.53;2.78;;;;;;;10.81;100.00;101907.44;7395099;19;20074;-56
2023/02/12 02:14:40;;;;;;;1.88;1.50;;;;;;;15.43;100.00;101911.84;7392983;19;20018;-56
2023/02/12 02:17:19;;;;;;;6.93;2.72;;;;;;;19.74;100.00;101909.97;7390588;19;20401;-56
2023/02/12 02:20:29;;;;;;;10.90;2.45;;;;;;;9.56;100.00;101918.25;7393172;19;20014;-56
2023/02/12 02:23:14;;;;;;;7.25;1.90;;;;;;;8.15;100.00;101907.88;7393552;19;20502;-56
2023/02/12 02:25:59;;;;;;;7.32;2.45;;;;;;;7.06;100.00;101925.91;7393387;19;20011;-56
2023/02/12 02:28:47;;;;;;;9.38;2.55;;;;;;;6.82;100.00;101922.03;7393462;19;20044;-56
2023/02/12 02:31:34;;;;;;;3.90;2.15;;;;;;;7.17;100.00;101915.59;7398412;19;20010;-56
2023/02/12 02:34:16;;;;;;;4.15;1.48;;;;;;;6.62;100.00;101928.44;7393214;19;20010;-56
2023/02/12 02:37:13;;;;;;;4.93;2.20;;;;;;;6.73;100.00;101935.53;7392756;19;20022;-56
2023/02/12 02:39:51;;;;;;;4.40;1.95;;;;;;;6.90;100.00;101928.38;7394505;19;20007;-56
2023/02/12 02:42:34;;;;;;;8.88;3.15;;;;;;;6.75;100.00;101932.34;7392266;19;20044;-55
2023/02/12 02:45:14;;;;;;;22.42;4.00;;;;;;;7.09;100.00;101919.59;7393701;19;20033;-55
2023/02/12 02:47:46;;;;;;;3.30;2.33;;;;;;;7.53;100.00;101927.31;7394325;19;20014;-55
2023/02/12 02:50:17;;;;;;;5.18;2.00;;;;;;;6.74;100.00;101928.00;7395028;19;20598;-56
2023/02/12 02:52:51;;;;;;;7.35;2.55;;;;;;;6.93;100.00;101924.78;7392264;19;20022;-56
2023/02/12 02:55:21;;;;;;;5.72;1.17;;;;;;;7.47;100.00;101921.38;7393304;19;20025;-56
2023/02/12 02:57:56;;;;;;;8.45;3.15;;;;;;;6.43;100.00;101926.84;7392828;19;20010;-56
2023/02/12 03:00:59;;;;;;;5.82;1.55;;;;;;;6.83;100.00;101911.75;7395909;19;20364;-56
2023/02/12 03:03:33;;;;;;;3.75;2.40;;;;;;;6.67;100.00;101930.81;7392308;19;20070;-55
2023/02/12 03:06:14;;;;;;;9.45;2.05;;;;;;;6.83;100.00;101922.84;7390368;19;20074;-55
2023/02/12 03:08:48;;;;;;;13.97;2.43;;;;;;;6.33;100.00;101918.56;7392311;19;20344;-55
2023/02/12 03:11:18;;;;;;;3.60;2.10;;;;;;;6.30;100.00;101922.13;7396700;19;20246;-55
2023/02/12 03:13:55;;;;;;;4.57;1.90;;;;;;;6.56;100.00;101924.50;7395255;19;20014;-55
2023/02/12 03:16:31;;;;;;;3.50;1.50;;;;;;;6.38;100.00;101918.16;7402015;19;20022;-55
2023/02/12 03:19:18;;;;;;;11.98;2.30;;;;;;;6.50;100.00;101923.28;7399111;19;20066;-55
2023/02/12 03:21:59;;;;;;;4.38;1.85;;;;;;;6.43;100.00;101920.53;7399636;19;20026;-55
2023/02/12 03:24:37;;;;;;;5.45;1.27;;;;;;;6.69;100.00;101922.88;7399839;19;20035;-55
2023/02/12 03:27:09;;;;;;;7.57;2.65;;;;;;;6.72;100.00;101922.88;7396611;19;20007;-56
2023/02/12 03:29:36;;;;;;;4.95;2.40;;;;;;;7.29;100.00;101915.16;7400532;19;20014;-55
2023/02/12 03:32:13;;;;;;;1.52;1.23;;;;;;;7.34;100.00;101923.03;7399208;19;20014;-55
2023/02/12 03:34:49;;;;;;;4.38;1.65;;;;;;;6.85;100.00;101923.22;7400626;19;20066;-55
2023/02/12 03:37:28;;;;;;;3.33;1.85;;;;;;;7.09;100.00;101927.09;7398034;19;20023;-55
2023/02/12 03:40:02;;;;;;;11.07;2.13;;;;;;;7.61;100.00;101924.09;7401683;19;20092;-55
2023/02/12 03:42:38;;;;;;;3.45;2.40;;;;;;;6.48;100.00;101929.22;7398421;19;20006;-55
2023/02/12 03:45:26;;;;;;;5.32;2.72;;;;;;;6.73;100.00;101923.66;7398299;19;20480;-55
2023/02/12 03:48:26;;;;;;;6.05;2.75;;;;;;;6.79;100.00;101916.53;7398349;19;20058;-55
2023/02/12 03:50:55;;;;;;;1.50;1.40;;;;;;;6.63;100.00;101930.78;7402105;19;20011;-55
2023/02/12 03:53:21;;;;;;;6.57;2.72;;;;;;;6.97;100.00;101925.59;7399103;19;20010;-55
2023/02/12 03:55:52;;;;;;;5.22;3.28;;;;;;;6.80;100.00;101926.41;7396011;19;20365;-55
2023/02/12 03:58:22;;;;;;;4.57;1.55;;;;;;;6.13;100.00;101927.25;7398179;19;20011;-55
2023/02/12 04:00:49;;;;;;;2.15;1.83;;;;;;;5.98;100.00;101933.19;7402147;19;20007;-55
2023/02/12 04:03:15;;;;;;;1.67;1.40;;;;;;;6.15;100.00;101931.63;7398616;19;20014;-55
2023/02/12 04:05:42;;;;;;;1.67;0.95;;;;;;;5.87;100.00;101924.88;7396981;19;20463;-55
2023/02/12 04:08:11;;;;;;;5.53;2.03;;;;;;;5.64;100.00;101929.13;7398728;19;20015;-55
2023/02/12 04:10:50;;;;;;;15.98;2.53;;;;;;;5.86;100.00;101931.59;7400714;19;20411;-55
2023/02/12 04:13:37;;;;;;;1.92;1.80;;;;;;;5.95;100.00;101929.25;7398118;19;20003;-55
2023/02/12 04:16:21;;;;;;;5.97;1.58;;;;;;;6.48;100.00;101928.44;7397214;19;20011;-55
2023/02/12 04:18:51;;;;;;;0.95;0.95;;;;;;;6.48;100.00;101933.97;7396392;19;20032;-55
2023/02/12 04:21:44;;;;;;;4.25;1.77;;;;;;;6.47;100.00;101932.41;7401258;19;20488;-55
2023/02/12 04:24:58;;;;;;;3.60;1.58;;;;;;;6.73;100.00;101929.19;7396304;19;20010;-55
2023/02/12 04:27:50;;;;;;;3.88;1.27;;;;;;;5.89;100.00;101936.31;7396956;19;20011;-55
2023/02/12 04:30:25;;;;;;;3.58;1.83;;;;;;;5.71;100.00;101940.22;7398555;19;20018;-55
2023/02/12 04:32:58;;;;;;;5.18;1.45;;;;;;;5.81;100.00;101937.47;7397240;19;20007;-55
2023/02/12 04:35:43;;;;;;;1.13;1.13;;;;;;;5.55;100.00;101928.72;7399437;19;20011;-55
2023/02/12 04:38:17;;;;;;;3.95;1.80;;;;;;;5.82;100.00;101939.06;7396666;19;20017;-55
2023/02/12 04:40:43;;;;;;;2.50;1.60;;;;;;;6.92;100.00;101937.06;7397880;19;20035;-55
2023/02/12 04:43:10;;;;;;;3.22;1.55;;;;;;;8.14;100.00;101922.94;7395261;19;20074;-55
2023/02/12 04:45:36;;;;;;;2.58;2.35;;;;;;;9.92;100.00;101926.84;7394987;19;20082;-55
2023/02/12 04:48:04;;;;;;;2.45;1.35;;;;;;;10.36;100.00;101923.78;7397446;19;20017;-55
2023/02/12 04:50:40;;;;;;;3.47;2.55;;;;;;;10.63;100.00;101918.16;7399831;19;20783;-55
2023/02/12 04:53:07;;;;;;;2.00;0.77;;;;;;;9.65;100.00;101931.63;7397520;19;20546;-55
2023/02/12 04:55:34;;;;;;;2.65;1.63;;;;;;;9.58;100.00;101926.97;7396089;19;20033;-55
2023/02/12 04:58:00;;;;;;;6.32;1.95;;;;;;;9.73;100.00;101933.09;7397079;19;20011;-56
2023/02/12 05:00:26;;;;;;;3.42;1.67;;;;;;;9.87;100.00;101927.34;7398727;19;20030;-56
2023/02/12 05:02:53;;;;;;;4.47;0.90;;;;;;;16.43;100.00;101927.06;7396026;19;20010;-55
2023/02/12 05:05:19;;;;;;;4.13;1.15;;;;;;;27.25;63.78;101898.19;7395039;19;20014;-56
2023/02/12 05:07:46;;;;;;;2.20;1.27;;;;;;;14.02;100.00;101924.41;7397895;19;20011;-56
2023/02/12 05:10:12;;;;;;;1.80;1.00;;;;;;;14.55;100.00;101919.88;7396783;19;20010;-56
2023/02/12 05:12:38;;;;;;;10.18;1.80;;;;;;;8.83;100.00;101934.63;7394260;19;20027;-55
2023/02/12 05:15:05;;;;;;;3.65;2.53;;;;;;;12.92;100.00;101915.69;7394462;19;20015;-55
2023/02/12 05:17:31;;;;;;;4.65;1.50;;;;;;;12.66;100.00;101917.59;7394635;19;20011;-55
2023/02/12 05:19:58;;;;;;;6.88;1.88;;;;;;;11.57;100.00;101919.41;7398140;19;20083;-55
2023/02/12 05:22:24;;;;;;;2.05;1.40;;;;;;;10.01;100.00;101924.31;7397591;19;20034;-55
2023/02/12 05:24:50;;;;;;;2.40;1.25;;;;;;;10.22;100.00;101924.00;7395649;19;20011;-56
2023/02/12 05:27:16;;;;;;;2.67;1.33;;;;;;;11.01;100.00;101932.56;7393971;19;20014;-56
2023/02/12 05:29:42;;;;;;;8.52;1.30;;;;;;;10.87;100.00;101930.06;7398826;19;20056;-55
2023/02/12 05:32:09;;;;;;;4.03;1.02;;;;;;;10.37;100.00;101921.81;7395155;19;20468;-55
2023/02/12 05:34:35;;;;;;;2.63;1.30;;;;;;;12.31;100.00;101907.31;7395618;19;20033;-55
2023/02/12 05:37:02;;;;;;;4.47;1.02;;;;;;;10.29;100.00;101912.75;7393802;19;20408;-56
2023/02/12 05:39:28;;;;;;;8.50;1.80;;;;;;;12.70;100.00;101909.09;7396880;19;20038;-56
2023/02/12 05:41:54;;;;;;;3.38;1.85;;;;;;;10.02;100.00;101917.56;7395418;19;20106;-56
2023/02/12 05:44:20;;;;;;;2.50;1.48;;;;;;;15.13;100.00;101907.72;7395043;19;20076;-55
2023/02/12 05:46:47;;;;;;;3.03;1.13;;;;;;;9.81;100.00;101904.00;7393774;19;20132;-55
2023/02/12 05:49:13;;;;;;;2.92;2.10;;;;;;;8.50;100.00;101909.56;7395088;19;20035;-55
2023/02/12 05:51:39;;;;;;;10.07;1.30;;;;;;;11.54;100.00;101898.78;7394208;19;20491;-55
2023/02/12 05:54:06;;;;;;;2.00;1.42;;;;;;;11.41;100.00;101907.00;7397026;19;20069;-55
2023/02/12 05:56:41;;;;;;;1.77;1.25;;;;;;;7.96;100.00;101905.63;7394175;19;20348;-55
2023/02/12 05:59:12;;;;;;;1.70;1.25;;;;;;;18.79;100.00;101898.22;7394770;19;20014;-56
2023/02/12 06:01:41;;;;;;;6.75;1.33;;;;;;;20.48;90.15;101891.53;7393824;19;20018;-56
2023/02/12 06:04:13;;;;;;;0.73;0.70;;;;;;;16.62;100.00;101899.75;7393378;19;20017;-56
2023/02/12 06:06:42;;;;;;;2.50;1.30;;;;;;;9.90;100.00;101901.44;7391719;19;20409;-55
2023/02/12 06:09:10;;;;;;;3.15;1.30;;;;;;;9.57;100.00;101897.56;7394366;19;20613;-55
2023/02/12 06:11:36;;;;;;;10.05;2.15;;;;;;;13.28;100.00;101895.88;7392887;19;20007;-55
2023/02/12 06:14:07;;;;;;;1.45;1.15;;;;;;;8.02;100.00;101904.00;7391806;19;20010;-56
2023/02/12 06:16:34;;;;;;;4.45;2.20;;;;;;;23.45;84.53;101882.00;7390625;19;20007;-56
2023/02/12 06:19:03;;;;;;;4.03;1.70;;;;;;;19.70;64.25;101891.66;7393224;19;20010;-56
2023/02/12 06:21:30;;;;;;;1.13;0.80;;;;;;;12.05;100.00;101906.38;7393217;19;20482;-55
2023/02/12 06:23:56;;;;;;;3.70;1.17;;;;;;;10.50;100.00;101908.84;7392218;19;20526;-55
2023/02/12 06:26:23;;;;;;;2.15;0.82;;;;;;;7.51;100.00;101916.59;7391007;19;20010;-56
2023/02/12 06:28:50;;;;;;;5.07;1.13;;;;;;;7.13;100.00;101908.47;7392699;19;20014;-55
2023/02/12 06:31:21;;;;;;;4.07;1.20;;;;;;;6.74;100.00;101908.63;7396680;19;20059;-55
2023/02/12 06:33:47;;;;;;;2.83;1.08;;;;;;;6.35;100.00;101913.41;7393048;19;20043;-55
2023/02/12 06:36:14;;;;;;;1.48;0.75;;;;;;;6.50;100.00;101914.97;7396673;19;20007;-56
2023/02/12 06:38:40;;;;;;;6.95;2.47;;;;;;;6.06;100.00;101907.91;7393492;19;20033;-55
2023/02/12 06:41:06;;;;;;;7.75;0.93;;;;;;;5.94;100.00;101910.25;7396951;19;20031;-56
2023/02/12 06:43:32;;;;;;;0.55;0.55;;;;;;;6.17;100.00;101916.22;7393074;19;20015;-55
2023/02/12 06:46:02;;;;;;;1.38;0.47;;;;;;;5.84;100.00;101920.16;7387312;19;20006;-56
2023/02/12 06:48:29;;;;;;;1.17;0.65;;;;;;;5.73;100.00;101924.81;7387395;19;20495;-55
2023/02/12 06:50:55;;;;;;;4.40;1.98;;;;;;;5.63;100.00;101928.34;7391985;19;20043;-56
2023/02/12 06:53:21;;;;;;;3.40;1.17;;;;;;;5.63;100.00;101933.09;7388452;19;20023;-55
2023/02/12 06:55:47;;;;;;;1.13;0.80;;;;;;;5.76;100.00;101926.78;7388292;19;20011;-55
2023/02/12 06:58:14;;;;;;;3.60;1.23;;;;;;;5.57;100.00;101935.44;7390317;19;20033;-56
2023/02/12 07:00:40;;;;;;;4.82;0.88;;;;;;;5.58;100.00;101939.81;7394104;19;20015;-55
2023/02/12 07:03:06;;;;;;;4.90;1.65;;;;;;;5.57;100.00;101929.13;7391883;19;20013;-56
2023/02/12 07:05:36;;;;;;;8.35;1.88;;;;;;;5.55;100.00;101935.03;7391258;19;20007;-55
2023/02/12 07:08:02;;;;;;;0.77;0.77;;;;;;;6.20;100.00;101942.28;7393092;19;20019;-55
2023/02/12 07:10:28;;;;;;;1.30;0.70;;;;;;;5.62;100.00;101932.31;7396332;19;20019;-55
2023/02/12 07:12:55;;;;;;;3.70;1.30;;;;;;;5.64;100.00;101935.47;7391642;19;20066;-55
2023/02/12 07:15:21;;;;;;;8.23;2.17;;;;;;;5.49;100.00;101942.13;7391134;19;20034;-55
2023/02/12 07:17:47;;;;;;;5.38;1.50;;;;;;;5.79;100.00;101931.56;7392789;19;20018;-55
2023/02/12 07:20:13;;;;;;;1.13;0.80;;;;;;;5.94;100.00;101941.47;7393903;19;20010;-55
2023/02/12 07:22:39;;;;;;;7.72;2.50;;;;;;;5.58;100.00;101941.75;7395492;19;20014;-56
2023/02/12 07:25:05;;;;;;;2.83;1.70;;;;;;;5.62;100.00;101948.88;7394268;19;20035;-56
2023/02/12 07:27:36;;;;;;;2.65;1.40;;;;;;;5.40;100.00;101941.72;7389777;19;20014;-56
2023/02/12 07:30:04;;;;;;;5.90;1.35;;;;;;;5.29;100.00;101951.91;7393998;19;20062;-55
2023/02/12 07:32:33;;;;;;;1.38;1.33;;;;;;;5.48;100.00;101948.81;7392174;19;20035;-55
2023/02/12 07:35:00;;;;;;;1.85;1.52;;;;;;;5.41;100.00;101954.34;7392590;19;20474;-55
2023/02/12 07:37:26;;;;;;;1.65;0.77;;;;;;;5.41;100.00;101954.34;7391359;19;20368;-55
2023/02/12 07:39:52;;;;;;;1.35;1.08;;;;;;;5.62;100.00;101954.41;7394446;19;20031;-56
2023/02/12 07:42:18;;;;;;;5.43;1.88;;;;;;;5.46;100.00;101953.97;7391533;19;20006;-56
2023/02/12 07:44:49;;;;;;;5.18;1.35;;;;;;;5.96;100.00;101955.69;7389451;19;20014;-55
2023/02/12 07:47:15;;;;;;;2.72;0.85;;;;;;;5.58;100.00;101950.84;7389646;19;20022;-56
2023/02/12 07:49:41;;;;;;;1.60;1.23;;;;;;;9.66;100.00;101949.88;7392009;19;20018;-56
2023/02/12 07:52:08;;;;;;;1.35;0.93;;;;;;;6.92;100.00;101939.84;7392167;19;20074;-56
2023/02/12 07:54:34;;;;;;;7.88;1.60;;;;;;;20.68;100.00;101919.81;7389884;19;20015;-55
2023/02/12 07:57:01;;;;;;;0.80;0.75;;;;;;;8.14;100.00;101936.81;7391590;19;20011;-55
2023/02/12 07:59:27;;;;;;;5.35;1.40;;;;;;;13.56;100.00;101928.63;7391894;19;20503;-55
2023/02/12 08:01:55;;;;;;;2.90;0.70;;;;;;;29.48;54.74;101911.25;7396189;19;20464;-55
2023/02/12 08:04:23;;;;;;;2.97;2.30;;;;;;;28.02;49.82;101919.84;7397911;19;20022;-55
2023/02/12 08:06:52;;;;;;;11.57;2.22;;;;;;;11.87;100.00;101933.91;7395698;19;20022;-56
2023/02/12 08:09:21;;;;;;;1.35;1.08;;;;;;;25.20;72.16;101918.28;7399640;19;20039;-55
2023/02/12 08:11:48;;;;;;;2.20;1.60;;;;;;;13.02;100.00;101934.16;7401183;19;20862;-56
2023/02/12 08:14:17;;;;;;;6.07;1.70;;;;;;;11.77;100.00;101940.53;7397976;19;20062;-55
2023/02/12 08:16:45;;;;;;;3.40;2.50;;;;;;;24.94;70.22;101912.22;7396183;19;20027;-56
2023/02/12 08:19:12;;;;;;;4.40;1.00;;;;;;;18.02;85.75;101933.94;7396718;19;20014;-56
2023/02/12 08:21:38;;;;;;;1.67;0.82;;;;;;;13.40;100.00;101937.91;7397483;19;20006;-56
2023/02/12 08:24:04;;;;;;;5.10;2.17;;;;;;;12.90;100.00;101932.13;7397796;19;20025;-56
2023/02/12 08:26:36;;;;;;;14.27;2.90;;;;;;;18.57;100.00;101928.78;7395612;19;20014;-56
2023/02/12 08:29:09;;;;;;;5.78;2.17;;;;;;;30.63;46.11;101902.97;7397238;19;20049;-56
2023/02/12 08:31:38;;;;;;;1.92;1.38;;;;;;;14.13;100.00;101933.25;7396524;19;20015;-56
2023/02/12 08:34:05;;;;;;;3.45;1.50;;;;;;;8.87;100.00;101943.72;7395713;19;20077;-55
2023/02/12 08:36:37;;;;;;;15.10;3.13;;;;;;;7.74;100.00;101943.03;7395778;19;20399;-56
2023/02/12 08:39:04;;;;;;;13.38;1.95;;;;;;;7.07;100.00;101943.34;7396757;19;20459;-55
2023/02/12 08:41:30;;;;;;;4.25;1.98;;;;;;;6.93;100.00;101938.63;7397218;19;20045;-55
2023/02/12 08:43:59;;;;;;;7.10;1.95;;;;;;;6.42;100.00;101946.63;7396902;19;20021;-55
2023/02/12 08:46:32;;;;;;;2.85;1.65;;;;;;;6.39;100.00;101939.13;7394876;19;20349;-55
2023/02/12 08:49:04;;;;;;;11.68;5.00;;;;;;;6.35;100.00;101957.69;7395998;19;20011;-55
2023/02/12 08:51:33;;;;;;;5.72;2.25;;;;;;;6.49;100.00;101949.41;7397022;19;20019;-55
2023/02/12 08:54:02;;;;;;;11.82;2.78;;;;;;;6.43;100.00;101964.81;7396520;19;20014;-55
2023/02/12 08:56:30;;;;;;;6.95;2.70;;;;;;;9.26;100.00;101945.25;7396316;19;20021;-55
2023/02/12 08:58:58;;;;;;;6.95;3.30;;;;;;;7.26;100.00;101960.28;7395173;19;20349;-55
2023/02/12 09:01:26;;;;;;;20.33;5.07;;;;;;;7.34;100.00;101953.53;7395800;19;20014;-55
2023/02/12 09:03:52;;;;;;;9.40;4.40;;;;;;;7.03;100.00;101965.53;7395883;19;20488;-56
2023/02/12 09:06:21;;;;;;;6.80;2.50;;;;;;;6.77;100.00;101960.44;7395426;19;20066;-55
2023/02/12 09:08:48;;;;;;;7.68;3.58;;;;;;;7.10;100.00;101959.97;7397868;19;20017;-56
2023/02/12 09:11:17;;;;;;;10.82;3.13;;;;;;;6.94;100.00;101965.16;7399027;19;20007;-55
2023/02/12 09:13:45;;;;;;;21.70;4.40;;;;;;;6.81;100.00;101969.53;7395063;19;20016;-55
2023/02/12 09:16:13;;;;;;;5.28;2.65;;;;;;;6.79;100.00;101975.47;7395323;19;20006;-56
2023/02/12 09:18:39;;;;;;;5.40;2.03;;;;;;;6.78;100.00;101970.31;7396204;19;20336;-56
2023/02/12 09:21:09;;;;;;;4.65;3.03;;;;;;;6.70;100.00;101968.75;7399715;19;20015;-56
2023/02/12 09:23:36;;;;;;;3.97;2.15;;;;;;;6.75;100.00;101965.59;7396283;19;20017;-55
2023/02/12 09:26:04;;;;;;;3.33;1.42;;;;;;;7.15;100.00;101970.63;7394467;19;20041;-56
2023/02/12 09:28:31;;;;;;;2.17;1.30;;;;;;;7.19;100.00;101960.31;7395650;19;20027;-56
2023/02/12 09:30:57;;;;;;;4.40;2.20;;;;;;;7.26;100.00;101963.06;7396036;19;20014;-56
2023/02/12 09:33:23;;;;;;;1.60;1.50;;;;;;;7.28;100.00;101955.13;7395524;19;20021;-56
2023/02/12 09:35:50;;;;;;;7.15;2.72;;;;;;;7.60;100.00;101958.56;7399005;19;20496;-56
2023/02/12 09:38:16;;;;;;;3.72;2.03;;;;;;;7.99;100.00;101949.22;7395886;19;20021;-56
2023/02/12 09:41:00;;;;;;;2.17;1.60;;;;;;;8.56;100.00;101939.25;7398773;19;20011;-63
2023/02/12 09:43:52;;;;;;;3.13;1.55;;;;;;;8.70;100.00;101939.13;7395192;19;20070;-56
2023/02/12 09:46:31;;;;;;;5.55;1.75;;;;;;;9.66;100.00;101935.97;7394313;19;20523;-56
2023/02/12 09:49:08;;;;;;;1.92;1.23;;;;;;;11.36;100.00;101927.06;7395570;19;20010;-56
2023/02/12 09:51:41;;;;;;;2.78;2.03;;;;;;;13.29;100.00;101922.66;7392101;19;20475;-56
2023/02/12 09:54:17;;;;;;;2.90;1.27;;;;;;;13.14;100.00;101930.69;7393727;19;20010;-56
2023/02/12 09:56:51;;;;;;;1.98;1.33;;;;;;;11.75;100.00;101940.19;7393854;19;20518;-56
2023/02/12 09:59:40;;;;;;;2.55;1.08;;;;;;;9.68;100.00;101941.94;7397426;19;20007;-56
2023/02/12 10:02:14;;;;;;;4.40;1.77;;;;;;;8.60;100.00;101936.47;7394180;19;20017;-56
2023/02/12 10:04:45;;;;;;;3.90;1.98;;;;;;;8.25;100.00;101934.75;7393301;19;20039;-56
2023/02/12 10:07:50;;;;;;;5.95;1.80;;;;;;;8.27;100.00;101935.16;7393390;19;20014;-56
2023/02/12 10:10:25;;;;;;;2.88;1.65;;;;;;;8.55;100.00;101932.16;7396665;19;20452;-56
2023/02/12 10:13:00;;;;;;;6.55;2.60;;;;;;;8.21;100.00;101934.78;7391952;19;20006;-56
2023/02/12 10:15:34;;;;;;;4.68;1.73;;;;;;;7.92;100.00;101933.41;7393802;19;20010;-56
2023/02/12 10:18:22;;;;;;;2.25;1.27;;;;;;;8.07;100.00;101936.88;7393518;19;20523;-56
2023/02/12 10:21:17;;;;;;;3.30;2.13;;;;;;;8.53;100.00;101939.31;7396319;19;20488;-56
2023/02/12 10:23:58;;;;;;;1.90;1.55;;;;;;;8.63;100.00;101933.63;7390618;19;20472;-56
2023/02/12 10:26:30;;;;;;;6.22;1.50;;;;;;;8.81;100.00;101939.81;7393271;19;20014;-56
2023/02/12 10:29:24;;;;;;;3.75;1.92;;;;;;;8.45;100.00;101935.78;7396681;19;20018;-56
2023/02/12 10:32:04;;;;;;;5.55;1.38;;;;;;;8.40;100.00;101931.47;7390793;19;20010;-57
2023/02/12 10:34:33;;;;;;;4.10;2.78;;;;;;;8.35;100.00;101940.25;7392784;19;20011;-57
2023/02/12 10:37:14;;;;;;;8.20;1.45;;;;;;;8.82;100.00;101946.94;7391697;19;20021;-56
2023/02/12 10:39:47;;;;;;;2.67;1.60;;;;;;;9.31;100.00;101936.47;7392191;19;20021;-56
2023/02/12 10:42:39;;;;;;;5.35;1.27;;;;;;;9.51;100.00;101938.16;7393408;19;20767;-56
2023/02/12 10:45:12;;;;;;;2.63;1.15;;;;;;;9.28;100.00;101926.16;7391726;19;20016;-57
2023/02/12 10:47:38;;;;;;;1.25;0.55;;;;;;;9.24;100.00;101934.56;7389984;19;20022;-56
2023/02/12 10:50:24;;;;;;;5.47;1.58;;;;;;;9.23;100.00;101923.84;7394058;19;20018;-56
2023/02/12 10:52:54;;;;;;;3.13;1.08;;;;;;;8.66;100.00;101937.59;7391984;19;20014;-56
2023/02/12 10:55:32;;;;;;;2.28;1.02;;;;;;;9.27;100.00;101925.38;7391725;19;20011;-56
2023/02/12 10:58:01;;;;;;;1.92;1.55;;;;;;;9.63;100.00;101929.28;7392688;19;20018;-56
2023/02/12 11:00:27;;;;;;;2.90;1.50;;;;;;;9.82;100.00;101941.72;7396839;19;20021;-56
2023/02/12 11:02:59;;;;;;;7.50;1.85;;;;;;;9.30;100.00;101932.88;7393298;19;20018;-56
2023/02/12 11:05:29;;;;;;;1.70;1.08;;;;;;;9.37;100.00;101926.44;7390870;19;20014;-56
2023/02/12 11:07:58;;;;;;;2.47;0.95;;;;;;;9.46;100.00;101932.28;7390976;19;20460;-56
2023/02/12 11:10:31;;;;;;;2.05;1.08;;;;;;;10.07;100.00;101931.00;7394397;19;20018;-56
2023/02/12 11:12:59;;;;;;;4.03;1.17;;;;;;;10.53;100.00;101933.84;7393588;19;20024;-56
2023/02/12 11:15:30;;;;;;;2.00;1.15;;;;;;;10.71;100.00;101929.94;7392607;19;20039;-56
2023/02/12 11:18:07;;;;;;;2.53;0.95;;;;;;;18.14;94.81;101916.81;7392678;19;20007;-56
2023/02/12 11:20:48;;;;;;;3.78;1.63;;;;;;;27.50;60.93;101891.06;7395338;19;20026;-57
2023/02/12 11:23:36;;;;;;;1.73;0.82;;;;;;;18.98;61.42;101907.28;7391250;19;20010;-56
2023/02/12 11:26:18;;;;;;;4.88;1.60;;;;;;;15.13;93.36;101918.97;7391172;19;20478;-57
2023/02/12 11:29:15;;;;;;;1.65;1.48;;;;;;;14.35;100.00;101911.72;7393155;19;20017;-57
2023/02/12 11:31:41;;;;;;;4.72;1.20;;;;;;;15.13;98.85;101916.16;7388693;19;20007;-56
2023/02/12 11:34:15;;;;;;;6.18;1.33;;;;;;;16.44;87.60;101911.75;7396406;19;20347;-56
2023/02/12 11:36:47;;;;;;;4.65;1.15;;;;;;;15.97;92.26;101914.13;7402276;19;20011;-56
2023/02/12 11:39:20;;;;;;;1.45;0.70;;;;;;;17.81;79.36;101904.75;7399004;19;20023;-56
2023/02/12 11:41:53;;;;;;;4.65;1.42;;;;;;;16.89;80.52;101913.81;7399123;19;20014;-56
2023/02/12 11:44:26;;;;;;;6.63;1.35;;;;;;;16.21;83.65;101917.94;7398597;19;20014;-56